Tuesday, September 23, 2014, 4:21 PM EDT

KOKV, Winchester Regional

Location: Winchester, VA, United States Lat: 39.15
Local Time: 4:21 PM EDT (20:21 GMT) Lon: -78.15
Time Zone: US/Eastern Elev: 728 ft

Show me the last for .
Show Decoded

2014-09-23 15:55 METAR KOKV 231955Z AUTO 12003KT 10SM CLR 21/03 A3032 RMK AO2 =
2014-09-23 15:35 METAR KOKV 231935Z AUTO 00000KT 10SM CLR 20/03 A3033 RMK AO2 =
2014-09-23 15:15 METAR KOKV 231915Z AUTO 07004KT 10SM CLR 21/03 A3033 RMK AO2 =
2014-09-23 14:55 METAR KOKV 231855Z AUTO 00000KT 10SM CLR 20/02 A3034 RMK AO2 =
2014-09-23 14:35 METAR KOKV 231835Z AUTO 02003KT 10SM CLR 20/02 A3035 RMK AO2 =
2014-09-23 14:15 METAR KOKV 231815Z AUTO 07005KT 10SM CLR 20/02 A3034 RMK AO2 =
2014-09-23 13:55 METAR KOKV 231755Z AUTO 05004KT 10SM CLR 20/02 A3035 RMK AO2 =
2014-09-23 13:35 METAR KOKV 231735Z AUTO 10006KT 10SM CLR 20/03 A3035 RMK AO2 =
2014-09-23 13:15 METAR KOKV 231715Z AUTO 16003KT 10SM CLR 19/03 A3036 RMK AO2 =
2014-09-23 12:55 METAR KOKV 231655Z AUTO 00000KT 10SM CLR 18/03 A3037 RMK AO2 =
2014-09-23 12:35 METAR KOKV 231635Z AUTO 09004KT 10SM CLR 18/03 A3038 RMK AO2 =
2014-09-23 12:15 METAR KOKV 231615Z AUTO 27003KT 10SM CLR 17/03 A3037 RMK AO2 =
2014-09-23 11:55 METAR KOKV 231555Z AUTO 29003KT 10SM CLR 17/04 A3036 RMK AO2 =
2014-09-23 11:35 METAR KOKV 231535Z AUTO 00000KT 10SM CLR 17/04 A3037 RMK AO2 =
2014-09-23 11:15 METAR KOKV 231515Z AUTO 11003KT 10SM CLR 16/04 A3038 RMK AO2 =
2014-09-23 10:55 METAR KOKV 231455Z AUTO 22004KT 10SM CLR 16/05 A3039 RMK AO2 =
2014-09-23 10:35 METAR KOKV 231435Z AUTO 00000KT 10SM CLR 15/05 A3039 RMK AO2 =
2014-09-23 10:15 METAR KOKV 231415Z AUTO 00000KT 10SM CLR 14/05 A3037 RMK AO2 =
2014-09-23 09:55 METAR KOKV 231355Z AUTO 36003KT 10SM CLR 13/05 A3037 RMK AO2 =
2014-09-23 09:35 METAR KOKV 231335Z AUTO 35004KT 10SM CLR 13/05 A3037 RMK AO2 =
2014-09-23 09:15 METAR KOKV 231315Z AUTO 32004KT 10SM CLR 12/05 A3036 RMK AO2 =
2014-09-23 08:55 METAR KOKV 231255Z AUTO 31004KT 10SM CLR 12/06 A3035 RMK AO2 =
2014-09-23 08:35 METAR KOKV 231235Z AUTO 31003KT 10SM CLR 11/06 A3035 RMK AO2 =
2014-09-23 08:15 METAR KOKV 231215Z AUTO 32003KT 10SM CLR 10/06 A3035 RMK AO2 =
2014-09-23 07:55 METAR KOKV 231155Z AUTO 00000KT 10SM CLR 08/06 A3034 RMK AO2 =
2014-09-23 07:35 METAR KOKV 231135Z AUTO 00000KT 10SM CLR 07/05 A3034 RMK AO2 =
2014-09-23 07:15 METAR KOKV 231115Z AUTO 33003KT 10SM CLR 07/05 A3033 RMK AO2 =
2014-09-23 06:55 METAR KOKV 231055Z AUTO 34004KT 10SM CLR 06/04 A3032 RMK AO2 =
2014-09-23 06:35 METAR KOKV 231035Z AUTO 00000KT 10SM CLR 06/05 A3032 RMK AO2 =
2014-09-23 06:15 METAR KOKV 231015Z AUTO 00000KT 10SM CLR 06/05 A3032 RMK AO2 =
2014-09-23 05:55 METAR KOKV 230955Z AUTO 00000KT 10SM CLR 06/04 A3031 RMK AO2 =
2014-09-23 05:35 METAR KOKV 230935Z AUTO 31004KT 10SM CLR 06/04 A3030 RMK AO2 =
2014-09-23 05:15 METAR KOKV 230915Z AUTO 30004KT 10SM CLR 07/04 A3029 RMK AO2 =
2014-09-23 04:55 METAR KOKV 230855Z AUTO 33003KT 10SM CLR 07/05 A3028 RMK AO2 =
2014-09-23 04:35 METAR KOKV 230835Z AUTO 30003KT 10SM CLR 08/05 A3028 RMK AO2 =
2014-09-23 04:15 METAR KOKV 230815Z AUTO 29003KT 10SM CLR 08/05 A3028 RMK AO2 =
2014-09-23 03:55 METAR KOKV 230755Z AUTO 30003KT 10SM CLR 08/05 A3028 RMK AO2 =
2014-09-23 03:35 METAR KOKV 230735Z AUTO 31004KT 10SM CLR 08/05 A3028 RMK AO2 =
2014-09-23 03:15 METAR KOKV 230715Z AUTO 33005KT 10SM CLR 09/05 A3027 RMK AO2 =
2014-09-23 02:55 METAR KOKV 230655Z AUTO 35004KT 10SM CLR 08/05 A3027 RMK AO2 =
2014-09-23 02:35 METAR KOKV 230635Z AUTO 00000KT 10SM CLR 09/05 A3027 RMK AO2 =
2014-09-23 02:15 METAR KOKV 230615Z AUTO 33003KT 10SM CLR 08/04 A3027 RMK AO2 =
2014-09-23 01:55 METAR KOKV 230555Z AUTO 00000KT 10SM CLR 08/05 A3027 RMK AO2 =
2014-09-23 01:35 METAR KOKV 230535Z AUTO 00000KT 10SM CLR 08/05 A3027 RMK AO2 =
2014-09-23 01:15 METAR KOKV 230515Z AUTO 00000KT 10SM CLR 09/05 A3026 RMK AO2 =
2014-09-23 00:55 METAR KOKV 230455Z AUTO 00000KT 10SM CLR 10/05 A3026 RMK AO2 =
2014-09-23 00:35 METAR KOKV 230435Z AUTO 30003KT 10SM CLR 10/05 A3026 RMK AO2 =
2014-09-23 00:15 METAR KOKV 230415Z AUTO 30004KT 10SM CLR 11/05 A3026 RMK AO2 =
2014-09-22 23:55 METAR KOKV 230355Z AUTO 30003KT 10SM CLR 11/05 A3026 RMK AO2 =
2014-09-22 23:35 METAR KOKV 230335Z AUTO 00000KT 10SM SCT045 11/05 A3027 RMK AO2 =
2014-09-22 23:15 METAR KOKV 230315Z AUTO 00000KT 10SM BKN045 12/05 A3027 RMK AO2 =
2014-09-22 22:55 METAR KOKV 230255Z AUTO 31004KT 10SM BKN045 11/05 A3025 RMK AO2 =
2014-09-22 22:35 METAR KOKV 230235Z AUTO 00000KT 10SM BKN045 12/05 A3025 RMK AO2 =
2014-09-22 22:15 METAR KOKV 230215Z AUTO 33003KT 10SM SCT045 12/05 A3024 RMK AO2 =
2014-09-22 21:55 METAR KOKV 230155Z AUTO 32004KT 10SM CLR 13/05 A3022 RMK AO2 =
2014-09-22 21:35 METAR KOKV 230135Z AUTO 32003KT 10SM CLR 13/05 A3022 RMK AO2 =
2014-09-22 21:15 METAR KOKV 230115Z AUTO 34003KT 10SM CLR 13/05 A3021 RMK AO2 =
2014-09-22 20:55 METAR KOKV 230055Z AUTO 32005KT 10SM CLR 13/05 A3020 RMK AO2 =
2014-09-22 20:35 METAR KOKV 230035Z AUTO 32005KT 10SM CLR 15/05 A3018 RMK AO2 =
2014-09-22 20:15 METAR KOKV 230015Z AUTO 32009KT 10SM CLR 15/05 A3017 RMK AO2 =
2014-09-22 19:55 METAR KOKV 222355Z AUTO 31008KT 10SM CLR 15/05 A3016 RMK AO2 =
2014-09-22 19:35 METAR KOKV 222335Z AUTO 30008KT 10SM CLR 16/05 A3015 RMK AO2 =
2014-09-22 19:15 METAR KOKV 222315Z AUTO 29010KT 10SM CLR 17/05 A3013 RMK AO2 =
2014-09-22 18:55 METAR KOKV 222255Z AUTO 29009KT 10SM CLR 18/05 A3012 RMK AO2 =
2014-09-22 18:35 METAR KOKV 222235Z AUTO 28009KT 10SM CLR 18/05 A3011 RMK AO2 =
2014-09-22 18:15 METAR KOKV 222215Z AUTO 28011KT 10SM CLR 18/05 A3010 RMK AO2 =
2014-09-22 17:55 METAR KOKV 222155Z AUTO 27013G18KT 10SM CLR 18/05 A3010 RMK AO2 =
2014-09-22 17:35 METAR KOKV 222135Z AUTO 28014G18KT 10SM CLR 20/05 A3009 RMK AO2 =
2014-09-22 17:15 METAR KOKV 222115Z AUTO 29014G18KT 10SM CLR 20/05 A3008 RMK AO2 =
2014-09-22 16:55 METAR KOKV 222055Z AUTO 30011KT 10SM CLR 21/05 A3008 RMK AO2 =
2014-09-22 16:35 METAR KOKV 222035Z AUTO 27012G18KT 10SM CLR 21/05 A3008 RMK AO2 =

Support USWX by starting your Amazon purchase here.